createdAt,value
2022-11-28T00:01:22.672Z,36.35
2022-11-28T00:03:50.302Z,39.67
2022-11-28T00:06:17.994Z,39.13
2022-11-28T00:08:45.467Z,35.13
2022-11-28T00:11:13.999Z,37.83
2022-11-28T00:13:41.458Z,41.35
2022-11-28T00:16:09.399Z,45.70
2022-11-28T00:18:37.018Z,48.55
2022-11-28T00:21:06.223Z,41.22
2022-11-28T00:23:33.739Z,41.58
2022-11-28T00:26:11.385Z,42.03
2022-11-28T00:28:38.745Z,44.00
2022-11-28T00:31:06.521Z,44.53
2022-11-28T00:33:33.950Z,41.47
2022-11-28T00:36:02.158Z,37.78
2022-11-28T00:38:29.749Z,42.43
2022-11-28T00:41:07.023Z,47.22
2022-11-28T00:43:34.657Z,42.15
2022-11-28T00:46:02.752Z,44.35
2022-11-28T00:48:30.157Z,43.17
2022-11-28T00:51:05.519Z,43.33
2022-11-28T00:53:32.839Z,38.77
2022-11-28T00:56:00.430Z,43.80
2022-11-28T00:58:27.745Z,39.75
2022-11-28T01:00:55.146Z,39.95
2022-11-28T01:03:22.782Z,38.92
2022-11-28T01:05:50.105Z,40.50
2022-11-28T01:08:17.447Z,39.42
2022-11-28T01:10:45.307Z,40.20
2022-11-28T01:13:12.634Z,39.17
2022-11-28T01:15:40.919Z,37.42
2022-11-28T01:18:08.849Z,33.80
2022-11-28T01:20:36.179Z,35.65
2022-11-28T01:23:03.545Z,36.30
2022-11-28T01:25:31.172Z,39.20
2022-11-28T01:27:58.487Z,36.78
2022-11-28T01:30:25.809Z,37.53
2022-11-28T01:32:53.438Z,36.95
2022-11-28T01:35:20.771Z,36.83
2022-11-28T01:37:48.106Z,35.37
2022-11-28T01:40:15.663Z,38.38
2022-11-28T01:42:42.988Z,36.78
2022-11-28T01:45:24.151Z,31.70
2022-11-28T01:47:52.120Z,31.03
2022-11-28T01:50:19.731Z,35.35
2022-11-28T01:52:48.232Z,32.45
2022-11-28T01:55:15.830Z,39.20
2022-11-28T01:57:43.156Z,33.33
2022-11-28T02:00:16.958Z,29.07
2022-11-28T02:02:47.909Z,32.73
2022-11-28T02:05:16.360Z,34.58
2022-11-28T02:07:44.175Z,29.60
2022-11-28T02:10:13.967Z,34.97
2022-11-28T02:13:09.047Z,28.23
2022-11-28T02:15:39.169Z,30.43
2022-11-28T02:18:29.065Z,33.83
2022-11-28T02:21:55.016Z,28.85
2022-11-28T02:24:57.787Z,32.83
2022-11-28T02:27:38.787Z,31.75
2022-11-28T02:30:12.995Z,30.73
2022-11-28T02:32:53.033Z,34.72
2022-11-28T02:35:44.903Z,33.33
2022-11-28T02:38:30.703Z,30.00
2022-11-28T02:41:06.987Z,31.35
2022-11-28T02:43:52.395Z,32.17
2022-11-28T02:46:27.638Z,32.40
2022-11-28T02:49:14.651Z,28.57
2022-11-28T02:51:44.743Z,34.03
2022-11-28T02:54:13.042Z,30.30
2022-11-28T02:56:50.014Z,35.10
2022-11-28T02:59:36.506Z,31.80
2022-11-28T03:02:28.852Z,30.40
2022-11-28T03:05:17.927Z,31.27
2022-11-28T03:08:04.176Z,31.17
2022-11-28T03:10:45.083Z,30.30
2022-11-28T03:13:32.078Z,33.08
2022-11-28T03:16:23.183Z,29.13
2022-11-28T03:19:02.945Z,37.90
2022-11-28T03:21:33.752Z,39.35
2022-11-28T03:24:02.963Z,35.43
2022-11-28T03:26:45.337Z,31.58
2022-11-28T03:29:16.387Z,32.60
2022-11-28T03:31:47.939Z,32.87
2022-11-28T03:34:16.636Z,30.77
2022-11-28T03:37:07.226Z,33.47
2022-11-28T03:39:37.124Z,30.17
2022-11-28T03:42:10.603Z,37.27
2022-11-28T03:45:00.880Z,34.37
2022-11-28T03:47:31.401Z,33.23
2022-11-28T03:50:01.702Z,33.43
2022-11-28T03:52:32.448Z,33.77
2022-11-28T03:55:02.222Z,32.97
2022-11-28T03:57:35.534Z,33.40
2022-11-28T04:00:08.141Z,33.43
2022-11-28T04:02:46.652Z,33.58
2022-11-28T04:05:46.635Z,30.20
2022-11-28T04:08:18.087Z,34.37
2022-11-28T04:10:57.057Z,32.90
2022-11-28T04:13:43.857Z,31.80
2022-11-28T04:16:21.853Z,33.83
2022-11-28T04:19:06.554Z,29.25
2022-11-28T04:22:21.905Z,31.83
2022-11-28T04:24:52.157Z,29.87
2022-11-28T04:27:24.239Z,24.57
2022-11-28T04:29:53.967Z,29.53
2022-11-28T04:32:21.769Z,30.80
2022-11-28T04:34:52.431Z,28.17
2022-11-28T04:37:19.779Z,27.33
2022-11-28T04:39:48.087Z,24.83
2022-11-28T04:42:17.823Z,30.10
2022-11-28T04:44:54.665Z,28.17
2022-11-28T04:47:22.770Z,27.00
2022-11-28T04:49:50.206Z,29.17
2022-11-28T04:52:24.891Z,27.33
2022-11-28T04:55:10.299Z,31.27
2022-11-28T04:57:39.328Z,30.10
2022-11-28T05:00:13.071Z,32.47
2022-11-28T05:02:40.988Z,25.10
2022-11-28T05:05:10.147Z,29.77
2022-11-28T05:07:37.528Z,31.30
2022-11-28T05:10:06.099Z,29.40
2022-11-28T05:12:33.697Z,31.33
2022-11-28T05:15:01.004Z,31.10
2022-11-28T05:17:28.350Z,27.98
2022-11-28T05:19:55.970Z,28.13
2022-11-28T05:22:23.341Z,28.17
2022-11-28T05:24:50.727Z,32.17
2022-11-28T05:27:18.319Z,31.53
2022-11-28T05:29:51.971Z,29.60
2022-11-28T05:32:20.207Z,31.40
2022-11-28T05:34:47.599Z,32.97
2022-11-28T05:37:14.944Z,33.57
2022-11-28T05:39:42.803Z,31.65
2022-11-28T05:42:10.299Z,30.77
2022-11-28T05:44:37.659Z,30.67
2022-11-28T05:47:05.290Z,38.20
2022-11-28T05:49:32.596Z,35.45
2022-11-28T05:52:00.094Z,31.77
2022-11-28T05:54:27.713Z,33.08
2022-11-28T05:56:55.057Z,32.23
2022-11-28T05:59:22.412Z,33.92
2022-11-28T06:01:50.011Z,34.60
2022-11-28T06:04:17.672Z,33.13
2022-11-28T06:06:45.204Z,34.20
2022-11-28T06:09:12.698Z,32.33
2022-11-28T06:11:40.370Z,33.13
2022-11-28T06:14:07.685Z,34.38
2022-11-28T06:16:35.042Z,35.28
2022-11-28T06:19:03.825Z,32.63
2022-11-28T06:21:31.606Z,32.17
2022-11-28T06:23:59.305Z,35.85
2022-11-28T06:26:27.412Z,33.43
2022-11-28T06:28:58.258Z,34.03
2022-11-28T06:31:30.355Z,34.27
2022-11-28T06:33:58.350Z,35.70
2022-11-28T06:36:26.418Z,34.88
2022-11-28T06:38:54.282Z,33.63
2022-11-28T06:41:24.519Z,34.90
2022-11-28T06:43:51.871Z,32.30
2022-11-28T06:46:20.497Z,34.90
2022-11-28T06:48:49.085Z,34.50
2022-11-28T06:51:16.501Z,36.97
2022-11-28T06:53:43.837Z,34.53
2022-11-28T06:56:14.116Z,31.85
2022-11-28T06:58:41.794Z,32.35
2022-11-28T07:01:14.211Z,33.85
2022-11-28T07:03:41.968Z,37.10
2022-11-28T07:06:09.538Z,38.03
2022-11-28T07:08:37.044Z,32.85
2022-11-28T07:11:16.422Z,33.83
2022-11-28T07:13:45.892Z,33.13
2022-11-28T07:16:17.971Z,34.83
2022-11-28T07:18:45.360Z,34.27
2022-11-28T07:21:14.629Z,35.30
2022-11-28T07:23:42.743Z,31.10
2022-11-28T07:26:10.513Z,34.00
2022-11-28T07:28:38.107Z,40.30
2022-11-28T07:31:27.848Z,36.05
2022-11-28T07:33:55.468Z,36.15
2022-11-28T07:36:26.896Z,35.53
2022-11-28T07:38:55.884Z,30.95
2022-11-28T07:41:26.521Z,31.52
2022-11-28T07:43:56.165Z,42.17
2022-11-28T07:46:24.075Z,32.28
2022-11-28T07:48:51.610Z,37.83
2022-11-28T07:51:23.394Z,33.45
2022-11-28T07:53:51.088Z,29.15
2022-11-28T07:56:20.541Z,28.67
2022-11-28T07:58:47.960Z,29.73
2022-11-28T08:01:17.195Z,31.70
2022-11-28T08:03:44.858Z,30.77
2022-11-28T08:06:14.272Z,28.83
2022-11-28T08:08:41.684Z,28.75
2022-11-28T08:11:09.491Z,31.10
2022-11-28T08:13:37.385Z,27.65
2022-11-28T08:16:06.673Z,31.98
2022-11-28T08:18:35.125Z,26.23
2022-11-28T08:21:07.026Z,31.77
2022-11-28T08:23:34.732Z,26.75
2022-11-28T08:26:02.870Z,23.17
2022-11-28T08:28:30.314Z,29.73
2022-11-28T08:30:59.466Z,27.57
2022-11-28T08:33:26.956Z,29.53
2022-11-28T08:35:54.264Z,27.15
2022-11-28T08:38:21.914Z,26.67
2022-11-28T08:40:49.286Z,28.38
2022-11-28T08:43:16.770Z,30.83
2022-11-28T08:45:44.426Z,28.40
2022-11-28T08:48:11.806Z,24.80
2022-11-28T08:50:45.031Z,28.42
2022-11-28T08:53:18.521Z,32.30
2022-11-28T08:55:46.144Z,28.08
2022-11-28T08:58:13.947Z,30.67
2022-11-28T09:00:42.601Z,27.43
2022-11-28T09:03:19.348Z,28.43
2022-11-28T09:05:47.209Z,25.83
2022-11-28T09:08:15.718Z,25.98
2022-11-28T09:10:43.798Z,30.73
2022-11-28T09:13:11.655Z,24.98
2022-11-28T09:15:42.520Z,25.25
2022-11-28T09:18:09.988Z,27.70
2022-11-28T09:20:37.629Z,25.48
2022-11-28T09:23:05.437Z,23.52
2022-11-28T09:25:35.335Z,25.85
2022-11-28T09:28:02.920Z,24.10
2022-11-28T09:30:30.349Z,23.80
2022-11-28T09:32:57.698Z,27.50
2022-11-28T09:35:25.310Z,25.52
2022-11-28T09:37:52.687Z,24.65
2022-11-28T09:40:40.452Z,22.62
2022-11-28T09:43:38.431Z,28.73
2022-11-28T09:46:07.444Z,25.02
2022-11-28T09:48:51.044Z,27.87
2022-11-28T09:51:31.726Z,50.58
2022-11-28T09:54:14.016Z,34.58
2022-11-28T09:56:41.427Z,27.48
2022-11-28T09:59:21.159Z,43.38
2022-11-28T10:02:02.862Z,32.70
2022-11-28T10:04:56.744Z,40.03
2022-11-28T10:07:39.981Z,33.53
2022-11-28T10:10:29.547Z,24.83
2022-11-28T10:13:11.653Z,37.40
2022-11-28T10:15:59.855Z,24.80
2022-11-28T10:18:39.274Z,23.33
2022-11-28T10:21:29.976Z,29.35
2022-11-28T10:23:59.359Z,25.60
2022-11-28T10:26:32.229Z,29.83
2022-11-28T10:29:00.264Z,28.02
2022-11-28T10:31:36.574Z,27.70
2022-11-28T10:34:21.160Z,27.42
2022-11-28T10:37:01.214Z,27.37
2022-11-28T10:39:28.612Z,26.33
2022-11-28T10:42:12.082Z,26.42
2022-11-28T10:45:05.163Z,27.60
2022-11-28T10:47:51.138Z,27.37
2022-11-28T10:50:35.287Z,26.98
2022-11-28T10:53:25.741Z,28.55
2022-11-28T10:56:06.149Z,28.33
2022-11-28T10:58:50.306Z,29.12
2022-11-28T11:01:17.686Z,30.73
2022-11-28T11:03:45.321Z,29.55
2022-11-28T11:06:13.059Z,26.67
2022-11-28T11:08:40.846Z,27.67
2022-11-28T11:11:30.356Z,29.12
2022-11-28T11:14:10.599Z,26.45
2022-11-28T11:16:47.538Z,30.58
2022-11-28T11:22:21.893Z,29.12
2022-11-28T11:25:15.349Z,35.47
2022-11-28T11:27:59.870Z,29.70
2022-11-28T11:30:38.825Z,28.87
2022-11-28T11:33:07.218Z,33.78
2022-11-28T11:35:35.837Z,31.62
2022-11-28T11:38:21.317Z,31.35
2022-11-28T11:40:49.645Z,30.48
2022-11-28T11:43:23.029Z,33.40
2022-11-28T11:46:04.660Z,36.22
2022-11-28T11:48:39.880Z,33.22
2022-11-28T11:51:20.646Z,30.25
2022-11-28T11:53:47.985Z,32.38
2022-11-28T11:56:15.577Z,31.50
2022-11-28T11:58:51.289Z,34.15
2022-11-28T12:01:19.018Z,35.42
2022-11-28T12:03:53.538Z,31.50
2022-11-28T12:06:23.606Z,33.72
2022-11-28T12:08:58.112Z,35.85
2022-11-28T12:11:27.642Z,33.97
2022-11-28T12:13:55.778Z,33.03
2022-11-28T12:16:32.120Z,35.03
2022-11-28T12:22:12.119Z,31.77
2022-11-28T12:24:52.949Z,33.27
2022-11-28T12:27:31.960Z,33.40
2022-11-28T12:30:19.328Z,39.63
2022-11-28T12:33:08.451Z,34.33
2022-11-28T12:35:40.975Z,34.00
2022-11-28T12:38:26.676Z,36.22
2022-11-28T12:41:32.571Z,32.08
2022-11-28T12:47:08.133Z,30.10
2022-11-28T12:50:11.703Z,36.13
2022-11-28T12:52:49.396Z,35.25
2022-11-28T12:55:16.765Z,33.93
2022-11-28T12:57:49.278Z,35.00
2022-11-28T13:00:19.997Z,37.20
2022-11-28T13:03:08.616Z,36.50
2022-11-28T13:05:44.169Z,36.33
2022-11-28T13:08:49.374Z,33.58
2022-11-28T13:11:35.301Z,36.20
2022-11-28T13:14:31.550Z,34.03
2022-11-28T13:17:07.395Z,35.17
2022-11-28T13:19:48.945Z,34.55
2022-11-28T13:22:24.176Z,41.53
2022-11-28T13:25:27.323Z,34.57
2022-11-28T13:27:57.694Z,35.93
2022-11-28T13:30:26.516Z,36.30
2022-11-28T13:32:59.971Z,32.63
2022-11-28T13:35:27.867Z,40.20
2022-11-28T13:41:18.095Z,38.30
2022-11-28T13:44:07.984Z,37.73
2022-11-28T13:46:35.694Z,40.70
2022-11-28T13:49:15.247Z,36.37
2022-11-28T13:51:43.259Z,35.63
2022-11-28T13:54:22.854Z,36.33
2022-11-28T13:57:12.488Z,40.35
2022-11-28T13:59:39.893Z,43.65
2022-11-28T14:02:32.589Z,36.20
2022-11-28T14:05:00.404Z,42.07
2022-11-28T14:07:32.148Z,42.17
2022-11-28T14:10:24.215Z,43.35
2022-11-28T14:13:29.732Z,38.53
2022-11-28T14:19:09.663Z,43.67
2022-11-28T14:21:49.498Z,42.73
2022-11-28T14:24:41.347Z,37.63
2022-11-28T14:27:15.785Z,44.95
2022-11-28T14:29:43.208Z,39.77
2022-11-28T14:32:40.631Z,41.25
2022-11-28T14:35:37.996Z,42.60
2022-11-28T14:38:31.304Z,54.08
2022-11-28T14:41:00.210Z,44.47
2022-11-28T14:43:32.642Z,44.22
2022-11-28T14:46:16.061Z,38.70
2022-11-28T14:48:58.940Z,43.13
2022-11-28T14:51:48.298Z,38.33
2022-11-28T14:54:57.348Z,37.23
2022-11-28T14:57:38.081Z,36.88
2022-11-28T15:00:08.137Z,42.30
2022-11-28T15:02:48.734Z,44.73
2022-11-28T15:05:34.982Z,46.00
2022-11-28T15:08:14.944Z,43.33
2022-11-28T15:11:13.664Z,42.75
2022-11-28T15:13:50.561Z,40.07
2022-11-28T15:16:18.962Z,55.72
2022-11-28T15:18:49.046Z,45.43
2022-11-28T15:21:17.180Z,58.77
2022-11-28T15:23:46.966Z,58.20
2022-11-28T15:26:28.463Z,46.73
2022-11-28T15:29:24.522Z,42.00
2022-11-28T15:31:54.805Z,44.67
2022-11-28T15:34:33.586Z,45.33
2022-11-28T15:37:02.366Z,51.30
2022-11-28T15:39:39.936Z,40.97
2022-11-28T15:42:09.591Z,46.73
2022-11-28T15:44:37.778Z,48.90
2022-11-28T15:47:05.432Z,54.53
2022-11-28T15:49:34.273Z,56.83
2022-11-28T15:52:03.364Z,50.03
2022-11-28T15:54:38.219Z,46.83
2022-11-28T15:57:06.564Z,50.50
2022-11-28T15:59:34.113Z,60.90
2022-11-28T16:02:04.627Z,53.77
2022-11-28T16:04:32.268Z,68.83
2022-11-28T16:06:59.754Z,55.40
2022-11-28T16:09:33.894Z,46.83
2022-11-28T16:12:02.344Z,48.83
2022-11-28T16:14:36.368Z,48.67
2022-11-28T16:17:09.493Z,49.67
2022-11-28T16:19:37.297Z,45.87
2022-11-28T16:22:06.499Z,47.87
2022-11-28T16:24:43.293Z,44.07
2022-11-28T16:27:41.526Z,43.20
2022-11-28T16:30:29.816Z,49.50
2022-11-28T16:32:57.729Z,44.90
2022-11-28T16:35:28.955Z,42.33
2022-11-28T16:38:06.112Z,47.03
2022-11-28T16:40:33.451Z,44.33
2022-11-28T16:43:02.984Z,41.63
2022-11-28T16:45:33.389Z,43.63
2022-11-28T16:48:09.487Z,39.77
2022-11-28T16:50:36.924Z,48.20
2022-11-28T16:53:04.758Z,43.17
2022-11-28T16:55:32.371Z,45.13
2022-11-28T16:58:21.755Z,44.00
2022-11-28T17:00:58.193Z,50.37
2022-11-28T17:03:46.030Z,42.90
2022-11-28T17:06:19.276Z,48.33
2022-11-28T17:08:46.661Z,48.53
2022-11-28T17:11:14.600Z,51.20
2022-11-28T17:13:42.023Z,46.17
2022-11-28T17:16:27.804Z,51.50
2022-11-28T17:18:55.511Z,47.62
2022-11-28T17:21:43.224Z,46.83
2022-11-28T17:24:27.801Z,50.07
2022-11-28T17:26:55.189Z,47.83
2022-11-28T17:29:22.882Z,44.80
2022-11-28T17:31:50.289Z,49.87
2022-11-28T17:34:19.597Z,46.67
2022-11-28T17:36:47.918Z,54.37
2022-11-28T17:39:15.541Z,48.97
2022-11-28T17:41:43.116Z,51.23
2022-11-28T17:44:21.192Z,49.67
2022-11-28T17:46:52.237Z,48.90
2022-11-28T17:49:19.907Z,51.23
2022-11-28T17:51:49.201Z,49.13
2022-11-28T17:54:17.903Z,55.30
2022-11-28T17:56:47.310Z,47.70
2022-11-28T17:59:15.570Z,47.67
2022-11-28T18:01:44.140Z,48.97
2022-11-28T18:04:11.888Z,46.93
2022-11-28T18:06:39.383Z,46.13
2022-11-28T18:09:11.587Z,43.30
2022-11-28T18:11:40.655Z,49.73
2022-11-28T18:14:09.131Z,47.27
2022-11-28T18:16:36.747Z,47.80
2022-11-28T18:19:04.380Z,46.77
2022-11-28T18:21:32.390Z,50.30
2022-11-28T18:23:59.803Z,50.93
2022-11-28T18:26:27.470Z,53.00
2022-11-28T18:28:54.856Z,47.23
2022-11-28T18:31:24.487Z,48.57
2022-11-28T18:33:55.121Z,45.43
2022-11-28T18:36:25.974Z,45.40
2022-11-28T18:39:01.972Z,48.27
2022-11-28T18:41:29.368Z,45.13
2022-11-28T18:43:58.761Z,47.53
2022-11-28T18:46:26.723Z,45.20
2022-11-28T18:48:54.135Z,46.17
2022-11-28T18:51:23.761Z,51.57
2022-11-28T18:53:51.463Z,49.33
2022-11-28T18:56:19.214Z,55.53
2022-11-28T18:58:53.062Z,45.80
2022-11-28T19:01:25.523Z,48.93
2022-11-28T19:03:56.047Z,56.00
2022-11-28T19:06:23.771Z,50.67
2022-11-28T19:08:58.744Z,47.03
2022-11-28T19:11:28.541Z,48.77
2022-11-28T19:13:56.639Z,44.57
2022-11-28T19:16:25.988Z,42.70
2022-11-28T19:18:53.707Z,44.37
2022-11-28T19:21:22.836Z,43.37
2022-11-28T19:23:50.243Z,45.17
2022-11-28T19:26:19.690Z,52.37
2022-11-28T19:28:48.103Z,47.10
2022-11-28T19:31:17.155Z,50.00
2022-11-28T19:33:44.779Z,44.00
2022-11-28T19:36:13.236Z,48.20
2022-11-28T19:38:41.113Z,43.00
2022-11-28T19:41:13.677Z,45.57
2022-11-28T19:43:41.427Z,45.13
2022-11-28T19:46:09.510Z,45.67
2022-11-28T19:48:37.277Z,39.23
2022-11-28T19:51:04.979Z,47.10
2022-11-28T19:53:33.901Z,40.90
2022-11-28T19:56:05.552Z,47.63
2022-11-28T19:58:36.583Z,46.37
2022-11-28T20:01:08.663Z,48.37
2022-11-28T20:03:36.875Z,43.33
2022-11-28T20:06:11.778Z,47.17
2022-11-28T20:08:39.577Z,46.10
2022-11-28T20:11:08.754Z,44.93
2022-11-28T20:13:36.368Z,50.17
2022-11-28T20:16:05.010Z,44.33
2022-11-28T20:18:32.675Z,48.47
2022-11-28T20:21:12.919Z,42.77
2022-11-28T20:23:41.652Z,51.57
2022-11-28T20:26:09.290Z,45.60
2022-11-28T20:28:37.863Z,46.13
2022-11-28T20:31:06.019Z,46.77
2022-11-28T20:33:33.663Z,46.70
2022-11-28T20:36:08.204Z,46.33
2022-11-28T20:38:35.902Z,44.77
2022-11-28T20:41:04.704Z,54.00
2022-11-28T20:43:32.352Z,45.43
2022-11-28T20:46:16.447Z,49.73
2022-11-28T20:48:43.957Z,48.30
2022-11-28T20:51:13.140Z,45.50
2022-11-28T20:53:41.389Z,51.17
2022-11-28T20:56:11.506Z,45.87
2022-11-28T20:58:39.089Z,49.80
2022-11-28T21:01:06.545Z,46.00
2022-11-28T21:03:34.212Z,55.60
2022-11-28T21:06:01.913Z,47.80
2022-11-28T21:08:33.754Z,47.80
2022-11-28T21:11:05.922Z,46.87
2022-11-28T21:13:33.598Z,49.50
2022-11-28T21:16:08.886Z,47.77
2022-11-28T21:18:36.899Z,51.37
2022-11-28T21:21:11.839Z,47.40
2022-11-28T21:23:39.426Z,48.37
2022-11-28T21:26:09.245Z,53.50
2022-11-28T21:28:36.946Z,47.10
2022-11-28T21:31:09.354Z,50.80
2022-11-28T21:33:36.712Z,45.57
2022-11-28T21:36:04.610Z,48.37
2022-11-28T21:38:32.287Z,52.67
2022-11-28T21:40:59.616Z,46.87
2022-11-28T21:43:30.083Z,46.57
2022-11-28T21:46:04.621Z,45.77
2022-11-28T21:48:32.146Z,49.03
2022-11-28T21:50:59.904Z,51.87
2022-11-28T21:53:28.855Z,48.60
2022-11-28T21:55:56.224Z,50.00
2022-11-28T21:58:26.827Z,43.20
2022-11-28T22:01:01.876Z,49.20
2022-11-28T22:03:29.733Z,47.27
2022-11-28T22:06:01.809Z,45.90
2022-11-28T22:08:29.678Z,47.20
2022-11-28T22:11:03.619Z,43.23
2022-11-28T22:13:31.393Z,46.63
2022-11-28T22:15:59.002Z,46.63
2022-11-28T22:18:28.832Z,46.73
2022-11-28T22:21:06.483Z,42.97
2022-11-28T22:23:37.651Z,45.10
2022-11-28T22:26:05.620Z,46.17
2022-11-28T22:28:33.894Z,49.37
2022-11-28T22:31:08.776Z,46.87
2022-11-28T22:33:36.278Z,48.23
2022-11-28T22:36:08.618Z,49.00
2022-11-28T22:38:35.944Z,52.77
2022-11-28T22:41:10.908Z,49.27
2022-11-28T22:43:38.457Z,52.47
2022-11-28T22:46:06.376Z,48.40
2022-11-28T22:48:34.511Z,45.33
2022-11-28T22:51:11.876Z,48.07
2022-11-28T22:53:39.484Z,49.00
2022-11-28T22:56:11.281Z,48.97
2022-11-28T22:58:42.713Z,52.20
2022-11-28T23:01:17.287Z,50.17
2022-11-28T23:03:45.644Z,50.70
2022-11-28T23:06:15.065Z,51.00
2022-11-28T23:08:42.879Z,45.27
2022-11-28T23:11:15.459Z,50.13
2022-11-28T23:13:43.043Z,51.23
2022-11-28T23:16:24.650Z,54.33
2022-11-28T23:18:54.315Z,51.03
2022-11-28T23:21:22.781Z,49.10
2022-11-28T23:23:50.204Z,48.03
2022-11-28T23:26:19.413Z,50.10
2022-11-28T23:28:47.800Z,49.23
2022-11-28T23:31:25.724Z,59.60
2022-11-28T23:33:54.416Z,52.17
2022-11-28T23:36:23.681Z,49.13
2022-11-28T23:38:52.576Z,52.97
2022-11-28T23:41:20.178Z,55.70
2022-11-28T23:43:47.525Z,51.13
2022-11-28T23:46:15.156Z,51.07
2022-11-28T23:48:43.724Z,52.33
2022-11-28T23:51:12.836Z,48.70
2022-11-28T23:53:40.330Z,48.40
2022-11-28T23:56:24.383Z,49.20
2022-11-28T23:58:52.036Z,44.97
